createdAt,value
2017-05-22T00:00:43.589Z,0
2017-05-22T00:01:45.013Z,0
2017-05-22T00:02:46.416Z,0
2017-05-22T00:03:47.780Z,0
2017-05-22T00:04:49.153Z,0
2017-05-22T00:05:50.587Z,0
2017-05-22T00:06:51.949Z,0
2017-05-22T00:07:53.370Z,0
2017-05-22T00:08:54.681Z,0
2017-05-22T00:09:56.036Z,0
2017-05-22T00:10:57.412Z,0
2017-05-22T00:11:58.902Z,0
2017-05-22T00:13:00.263Z,0
2017-05-22T00:14:01.638Z,0
2017-05-22T00:15:03.002Z,0
2017-05-22T00:16:04.367Z,0
2017-05-22T00:17:05.734Z,0
2017-05-22T00:18:07.123Z,0
2017-05-22T00:19:08.547Z,0
2017-05-22T00:20:09.914Z,0
2017-05-22T00:21:11.284Z,0
2017-05-22T00:22:12.655Z,0
2017-05-22T00:23:14.048Z,0
2017-05-22T00:24:15.417Z,0
2017-05-22T00:25:16.817Z,0
2017-05-22T00:26:18.181Z,0
2017-05-22T00:27:19.553Z,0
2017-05-22T00:28:20.921Z,0
2017-05-22T00:29:22.285Z,0
2017-05-22T00:30:23.650Z,0
2017-05-22T00:31:25.014Z,0
2017-05-22T00:32:26.418Z,0
2017-05-22T00:33:27.776Z,0
2017-05-22T00:34:29.205Z,0
2017-05-22T00:35:30.572Z,0
2017-05-22T00:36:31.924Z,0
2017-05-22T00:37:33.942Z,0
2017-05-22T00:38:35.312Z,0
2017-05-22T00:39:36.674Z,0
2017-05-22T00:40:38.043Z,0
2017-05-22T00:41:39.445Z,0
2017-05-22T00:42:40.861Z,0
2017-05-22T00:43:42.226Z,0
2017-05-22T00:44:44.409Z,0
2017-05-22T00:45:45.773Z,0
2017-05-22T00:46:47.147Z,0
2017-05-22T00:47:48.505Z,0
2017-05-22T00:48:49.865Z,0
2017-05-22T00:49:51.235Z,0
2017-05-22T00:50:52.596Z,0
2017-05-22T00:51:53.974Z,0
2017-05-22T00:52:55.335Z,0
2017-05-22T00:53:56.769Z,0
2017-05-22T00:54:58.134Z,0
2017-05-22T00:55:59.497Z,0
2017-05-22T00:57:00.867Z,0
2017-05-22T00:58:02.225Z,0
2017-05-22T00:59:03.606Z,0
2017-05-22T01:00:04.975Z,0
2017-05-22T01:01:06.338Z,0
2017-05-22T01:02:07.713Z,0
2017-05-22T01:03:09.087Z,0
2017-05-22T01:04:10.465Z,0
2017-05-22T01:05:11.825Z,0
2017-05-22T01:06:13.262Z,0
2017-05-22T01:07:14.622Z,0
2017-05-22T01:08:15.989Z,0
2017-05-22T01:09:17.357Z,0
2017-05-22T01:10:18.721Z,0
2017-05-22T01:11:20.085Z,0
2017-05-22T01:12:21.450Z,0
2017-05-22T01:13:22.810Z,0
2017-05-22T01:14:24.171Z,0
2017-05-22T01:15:26.281Z,0
2017-05-22T01:16:27.640Z,0
2017-05-22T01:17:28.998Z,0
2017-05-22T01:18:30.370Z,0
2017-05-22T01:19:31.726Z,0
2017-05-22T01:20:33.082Z,0
2017-05-22T01:21:34.446Z,0
2017-05-22T01:22:35.806Z,0
2017-05-22T01:23:37.168Z,0
2017-05-22T01:24:38.571Z,0
2017-05-22T01:25:39.934Z,0
2017-05-22T01:26:41.330Z,0
2017-05-22T01:27:43.472Z,0
2017-05-22T01:28:44.839Z,0
2017-05-22T01:29:46.203Z,0
2017-05-22T01:30:47.564Z,0
2017-05-22T01:31:48.928Z,0
2017-05-22T01:32:50.296Z,0
2017-05-22T01:33:51.665Z,0
2017-05-22T01:34:53.023Z,0
2017-05-22T01:35:54.406Z,0
2017-05-22T01:36:55.764Z,0
2017-05-22T01:37:57.152Z,0
2017-05-22T01:38:58.510Z,0
2017-05-22T01:39:59.877Z,0
2017-05-22T01:41:01.262Z,0
2017-05-22T01:42:02.653Z,0
2017-05-22T01:43:04.015Z,0
2017-05-22T01:44:05.375Z,0
2017-05-22T01:45:06.739Z,0
2017-05-22T01:46:08.099Z,0
2017-05-22T01:47:09.469Z,0
2017-05-22T01:48:10.840Z,0
2017-05-22T01:49:12.201Z,0
2017-05-22T01:50:13.579Z,0
2017-05-22T01:51:14.943Z,0
2017-05-22T01:52:16.298Z,0
2017-05-22T01:53:17.728Z,0
2017-05-22T01:54:19.096Z,0
2017-05-22T01:55:20.458Z,0
2017-05-22T01:56:21.819Z,0
2017-05-22T01:57:23.185Z,0
2017-05-22T01:58:24.553Z,0
2017-05-22T01:59:25.914Z,0
2017-05-22T02:00:27.283Z,0
2017-05-22T02:01:28.644Z,0
2017-05-22T02:02:30.010Z,0
2017-05-22T02:03:31.375Z,0
2017-05-22T02:04:32.729Z,0
2017-05-22T02:05:34.096Z,0
2017-05-22T02:06:35.460Z,0
2017-05-22T02:07:36.881Z,0
2017-05-22T02:08:38.237Z,0
2017-05-22T02:09:39.603Z,0
2017-05-22T02:10:40.994Z,0
2017-05-22T02:11:42.350Z,0
2017-05-22T02:12:43.714Z,0
2017-05-22T02:13:45.078Z,0
2017-05-22T02:14:46.475Z,0
2017-05-22T02:15:47.816Z,0
2017-05-22T02:16:49.179Z,0
2017-05-22T02:17:50.538Z,0
2017-05-22T02:18:51.907Z,0
2017-05-22T02:19:53.274Z,0
2017-05-22T02:20:55.434Z,0
2017-05-22T02:21:56.808Z,0
2017-05-22T02:22:58.199Z,0
2017-05-22T02:23:59.562Z,0
2017-05-22T02:25:00.929Z,0
2017-05-22T02:26:02.290Z,0
2017-05-22T02:27:03.664Z,0
2017-05-22T02:28:05.030Z,0
2017-05-22T02:29:06.392Z,0
2017-05-22T02:30:07.764Z,0
2017-05-22T02:31:09.153Z,4
2017-05-22T02:32:10.516Z,4
2017-05-22T02:33:11.872Z,4
2017-05-22T02:34:13.249Z,0
2017-05-22T02:35:14.603Z,4
2017-05-22T02:36:15.961Z,4
2017-05-22T02:37:17.327Z,8
2017-05-22T02:38:18.695Z,4
2017-05-22T02:39:20.054Z,8
2017-05-22T02:40:21.409Z,4
2017-05-22T02:41:22.774Z,8
2017-05-22T02:42:24.157Z,8
2017-05-22T02:43:25.528Z,8
2017-05-22T02:44:26.890Z,12
2017-05-22T02:45:28.249Z,12
2017-05-22T02:46:29.613Z,16
2017-05-22T02:47:30.989Z,16
2017-05-22T02:48:32.359Z,20
2017-05-22T02:49:33.742Z,24
2017-05-22T02:50:35.091Z,28
2017-05-22T02:51:36.466Z,32
2017-05-22T02:52:37.835Z,36
2017-05-22T02:53:39.204Z,40
2017-05-22T02:54:40.565Z,44
2017-05-22T02:55:41.933Z,52
2017-05-22T02:56:43.295Z,56
2017-05-22T02:57:44.706Z,64
2017-05-22T02:58:46.076Z,72
2017-05-22T02:59:47.504Z,80
2017-05-22T03:00:48.864Z,88
2017-05-22T03:01:50.230Z,96
2017-05-22T03:02:51.591Z,108
2017-05-22T03:03:52.972Z,116
2017-05-22T03:04:54.351Z,124
2017-05-22T03:05:55.720Z,140
2017-05-22T03:06:57.091Z,148
2017-05-22T03:07:58.451Z,164
2017-05-22T03:08:59.822Z,180
2017-05-22T03:10:01.185Z,192
2017-05-22T03:11:02.568Z,212
2017-05-22T03:12:03.946Z,232
2017-05-22T03:13:05.364Z,248
2017-05-22T03:14:06.740Z,268
2017-05-22T03:15:08.098Z,288
2017-05-22T03:16:09.481Z,308
2017-05-22T03:17:11.443Z,332
2017-05-22T03:18:12.821Z,356
2017-05-22T03:19:14.241Z,384
2017-05-22T03:20:15.621Z,408
2017-05-22T03:21:17.011Z,428
2017-05-22T03:22:18.390Z,456
2017-05-22T03:23:19.876Z,484
2017-05-22T03:24:21.271Z,516
2017-05-22T03:25:22.651Z,548
2017-05-22T03:26:24.037Z,584
2017-05-22T03:27:25.423Z,616
2017-05-22T03:28:26.795Z,652
2017-05-22T03:29:28.231Z,680
2017-05-22T03:30:29.592Z,708
2017-05-22T03:31:30.977Z,728
2017-05-22T03:32:32.348Z,756
2017-05-22T03:33:33.712Z,788
2017-05-22T03:34:35.092Z,820
2017-05-22T03:35:36.456Z,848
2017-05-22T03:36:37.855Z,880
2017-05-22T03:37:39.232Z,912
2017-05-22T03:38:40.599Z,948
2017-05-22T03:39:41.970Z,984
2017-05-22T03:40:43.329Z,1016
2017-05-22T03:41:44.692Z,1048
2017-05-22T03:42:46.064Z,1080
2017-05-22T03:43:47.434Z,1112
2017-05-22T03:44:48.805Z,1144
2017-05-22T03:45:50.162Z,1168
2017-05-22T03:46:51.531Z,1192
2017-05-22T03:47:52.899Z,1220
2017-05-22T03:48:54.266Z,1240
2017-05-22T03:49:55.634Z,1264
2017-05-22T03:50:56.997Z,1288
2017-05-22T03:51:58.419Z,1312
2017-05-22T03:52:59.792Z,1340
2017-05-22T03:54:01.163Z,1364
2017-05-22T03:55:02.542Z,1392
2017-05-22T03:56:03.931Z,1412
2017-05-22T03:57:05.302Z,1432
2017-05-22T03:58:06.673Z,1452
2017-05-22T03:59:08.081Z,1476
2017-05-22T04:00:09.439Z,1500
2017-05-22T04:01:10.821Z,1516
2017-05-22T04:02:12.201Z,1528
2017-05-22T04:03:13.572Z,1544
2017-05-22T04:04:14.943Z,1564
2017-05-22T04:05:16.322Z,1588
2017-05-22T04:06:17.689Z,1608
2017-05-22T04:07:19.063Z,1628
2017-05-22T04:08:20.436Z,1648
2017-05-22T04:09:21.811Z,1668
2017-05-22T04:10:23.186Z,1696
2017-05-22T04:11:24.603Z,1732
2017-05-22T04:12:26.725Z,1760
2017-05-22T04:13:28.101Z,1784
2017-05-22T04:14:29.470Z,1800
2017-05-22T04:15:30.834Z,1812
2017-05-22T04:16:33.009Z,1840
2017-05-22T04:17:34.377Z,1876
2017-05-22T04:18:35.804Z,1904
2017-05-22T04:19:37.172Z,1940
2017-05-22T04:20:38.533Z,1984
2017-05-22T04:21:39.926Z,2028
2017-05-22T04:22:41.314Z,2064
2017-05-22T04:23:42.689Z,2088
2017-05-22T04:24:44.060Z,2120
2017-05-22T04:25:45.423Z,2144
2017-05-22T04:26:46.787Z,2176
2017-05-22T04:27:48.181Z,2208
2017-05-22T04:28:49.553Z,2240
2017-05-22T04:29:50.931Z,2264
2017-05-22T04:30:52.301Z,2292
2017-05-22T04:31:53.667Z,2320
2017-05-22T04:32:55.049Z,2344
2017-05-22T04:33:56.416Z,2364
2017-05-22T04:34:57.785Z,2392
2017-05-22T04:35:59.173Z,2416
2017-05-22T04:37:00.541Z,2448
2017-05-22T04:38:01.906Z,2476
2017-05-22T04:39:03.280Z,2504
2017-05-22T04:40:04.647Z,2532
2017-05-22T04:41:06.013Z,2560
2017-05-22T04:42:07.383Z,2584
2017-05-22T04:43:08.751Z,2608
2017-05-22T04:44:10.121Z,2636
2017-05-22T04:45:11.498Z,2664
2017-05-22T04:46:12.949Z,2688
2017-05-22T04:47:14.208Z,2716
2017-05-22T04:48:15.575Z,2744
2017-05-22T04:49:16.955Z,2764
2017-05-22T04:50:18.323Z,2792
2017-05-22T04:51:19.693Z,2812
2017-05-22T04:52:21.064Z,2832
2017-05-22T04:53:22.430Z,2852
2017-05-22T04:54:23.808Z,2880
2017-05-22T04:55:25.188Z,2900
2017-05-22T04:56:26.579Z,2924
2017-05-22T04:57:27.946Z,2940
2017-05-22T04:58:29.329Z,2956
2017-05-22T04:59:30.703Z,2980
2017-05-22T05:00:32.074Z,3004
2017-05-22T05:01:33.437Z,3024
2017-05-22T05:02:34.816Z,3040
2017-05-22T05:03:36.172Z,3068
2017-05-22T05:04:37.548Z,3084
2017-05-22T05:05:38.956Z,3112
2017-05-22T05:06:40.347Z,3132
2017-05-22T05:07:41.749Z,3144
2017-05-22T05:08:43.111Z,3164
2017-05-22T05:09:44.485Z,3184
2017-05-22T05:10:45.848Z,3208
2017-05-22T05:11:47.222Z,3232
2017-05-22T05:12:49.516Z,3248
2017-05-22T05:13:50.887Z,3268
2017-05-22T05:14:52.259Z,3300
2017-05-22T05:15:53.629Z,3320
2017-05-22T05:16:55.010Z,3340
2017-05-22T05:17:56.387Z,3368
2017-05-22T05:18:57.753Z,3380
2017-05-22T05:19:59.137Z,3412
2017-05-22T05:21:00.505Z,3436
2017-05-22T05:22:01.875Z,3456
2017-05-22T05:23:03.242Z,3480
2017-05-22T05:24:04.616Z,3500
2017-05-22T05:25:05.987Z,3520
2017-05-22T05:26:07.361Z,3544
2017-05-22T05:27:08.785Z,3560
2017-05-22T05:28:10.153Z,3584
2017-05-22T05:29:11.528Z,3608
2017-05-22T05:30:12.909Z,3628
2017-05-22T05:31:14.286Z,3648
2017-05-22T05:32:15.656Z,3672
2017-05-22T05:33:17.057Z,3692
2017-05-22T05:34:18.430Z,3712
2017-05-22T05:35:19.822Z,3732
2017-05-22T05:36:21.209Z,3752
2017-05-22T05:37:22.580Z,3772
2017-05-22T05:38:23.966Z,3788
2017-05-22T05:39:25.331Z,3820
2017-05-22T05:40:26.697Z,3836
2017-05-22T05:41:28.080Z,3864
2017-05-22T05:42:30.176Z,3888
2017-05-22T05:43:31.570Z,3908
2017-05-22T05:44:33.450Z,3928
2017-05-22T05:45:34.834Z,3948
2017-05-22T05:46:36.221Z,3972
2017-05-22T05:47:37.595Z,3988
2017-05-22T05:48:39.951Z,3996
2017-05-22T05:49:41.326Z,4016
2017-05-22T05:50:42.782Z,4028
2017-05-22T05:51:44.850Z,4048
2017-05-22T05:52:46.210Z,4064
2017-05-22T05:53:47.576Z,4072
2017-05-22T05:54:48.958Z,4092
2017-05-22T05:55:50.337Z,4100
2017-05-22T05:56:51.702Z,4116
2017-05-22T05:57:53.082Z,4132
2017-05-22T05:58:54.447Z,4144
2017-05-22T05:59:55.820Z,4156
2017-05-22T06:00:57.193Z,4176
2017-05-22T06:01:58.590Z,4192
2017-05-22T06:02:59.960Z,4200
2017-05-22T06:04:01.344Z,4216
2017-05-22T06:05:02.744Z,4232
2017-05-22T06:06:04.170Z,4260
2017-05-22T06:07:05.556Z,4272
2017-05-22T06:08:06.932Z,4300
2017-05-22T06:09:08.305Z,4316
2017-05-22T06:10:09.705Z,4336
2017-05-22T06:11:11.077Z,4344
2017-05-22T06:12:12.449Z,4360
2017-05-22T06:13:13.815Z,4376
2017-05-22T06:14:15.202Z,4384
2017-05-22T06:15:16.614Z,4396
2017-05-22T06:16:18.002Z,4412
2017-05-22T06:17:19.711Z,4432
2017-05-22T06:18:21.082Z,4444
2017-05-22T06:19:22.452Z,4440
2017-05-22T06:20:23.826Z,4456
2017-05-22T06:21:25.196Z,4476
2017-05-22T06:22:26.582Z,4488
2017-05-22T06:23:27.960Z,4504
2017-05-22T06:24:29.333Z,4520
2017-05-22T06:25:30.705Z,4524
2017-05-22T06:26:32.086Z,4544
2017-05-22T06:27:33.452Z,4548
2017-05-22T06:28:34.820Z,4564
2017-05-22T06:29:36.226Z,4584
2017-05-22T06:30:37.592Z,4604
2017-05-22T06:31:38.972Z,4636
2017-05-22T06:32:40.341Z,4652
2017-05-22T06:33:41.711Z,4676
2017-05-22T06:34:43.081Z,4692
2017-05-22T06:35:44.450Z,4712
2017-05-22T06:36:45.889Z,4720
2017-05-22T06:37:47.188Z,4744
2017-05-22T06:38:48.607Z,4760
2017-05-22T06:39:50.165Z,4784
2017-05-22T06:40:51.540Z,4796
2017-05-22T06:41:52.901Z,4808
2017-05-22T06:42:54.276Z,4840
2017-05-22T06:43:55.641Z,4848
2017-05-22T06:44:57.006Z,4860
2017-05-22T06:45:58.388Z,4860
2017-05-22T06:46:59.757Z,4872
2017-05-22T06:48:01.130Z,4884
2017-05-22T06:49:02.510Z,4908
2017-05-22T06:50:03.876Z,4920
2017-05-22T06:51:05.251Z,4928
2017-05-22T06:52:06.626Z,4932
2017-05-22T06:53:08.002Z,4956
2017-05-22T06:54:09.369Z,4968
2017-05-22T06:55:10.742Z,4960
2017-05-22T06:56:12.161Z,4988
2017-05-22T06:57:13.476Z,4996
2017-05-22T06:58:14.851Z,4988
2017-05-22T06:59:16.222Z,5020
2017-05-22T07:00:17.595Z,5036
2017-05-22T07:01:18.963Z,5064
2017-05-22T07:02:20.326Z,5072
2017-05-22T07:03:21.698Z,5084
2017-05-22T07:04:23.069Z,5096
2017-05-22T07:05:24.442Z,5096
2017-05-22T07:06:26.460Z,5104
2017-05-22T07:07:27.842Z,5120
2017-05-22T07:08:29.215Z,5120
2017-05-22T07:09:30.588Z,5140
2017-05-22T07:10:31.960Z,5144
2017-05-22T07:11:33.328Z,5160
2017-05-22T07:12:34.694Z,5176
2017-05-22T07:13:36.062Z,5188
2017-05-22T07:14:37.435Z,5208
2017-05-22T07:15:38.809Z,5220
2017-05-22T07:16:40.195Z,5244
2017-05-22T07:17:41.557Z,5252
2017-05-22T07:18:42.926Z,5256
2017-05-22T07:19:44.303Z,5260
2017-05-22T07:20:45.679Z,5260
2017-05-22T07:21:47.050Z,5276
2017-05-22T07:22:48.428Z,5268
2017-05-22T07:23:50.469Z,5284
2017-05-22T07:24:51.858Z,5200
2017-05-22T07:25:53.978Z,5188
2017-05-22T07:26:55.334Z,5240
2017-05-22T07:27:56.706Z,5224
2017-05-22T07:28:58.076Z,5164
2017-05-22T07:29:59.967Z,5252
2017-05-22T07:31:01.334Z,5236
2017-05-22T07:32:02.704Z,5248
2017-05-22T07:33:04.077Z,5224
2017-05-22T07:34:05.457Z,5224
2017-05-22T07:35:06.828Z,5272
2017-05-22T07:36:08.207Z,5280
2017-05-22T07:37:09.575Z,5264
2017-05-22T07:38:10.949Z,5260
2017-05-22T07:39:12.319Z,5292
2017-05-22T07:40:13.685Z,5248
2017-05-22T07:41:15.071Z,5236
2017-05-22T07:42:16.448Z,5248
2017-05-22T07:43:17.823Z,5252
2017-05-22T07:44:19.193Z,5252
2017-05-22T07:45:20.568Z,5252
2017-05-22T07:46:21.933Z,5236
2017-05-22T07:47:23.304Z,5196
2017-05-22T07:48:24.678Z,5216
2017-05-22T07:49:26.042Z,5180
2017-05-22T07:50:27.414Z,5184
2017-05-22T07:51:28.792Z,5180
2017-05-22T07:52:30.171Z,5184
2017-05-22T07:53:31.568Z,5192
2017-05-22T07:54:32.936Z,5180
2017-05-22T07:55:34.302Z,5120
2017-05-22T07:56:35.669Z,5120
2017-05-22T07:57:37.057Z,5132
2017-05-22T07:58:38.446Z,5116
2017-05-22T07:59:39.813Z,5124
2017-05-22T08:00:41.190Z,5136
2017-05-22T08:01:42.566Z,5152
2017-05-22T08:02:44.559Z,5148
2017-05-22T08:03:45.944Z,5160
2017-05-22T08:04:47.315Z,5168
2017-05-22T08:05:49.343Z,5156
2017-05-22T08:06:50.721Z,5168
2017-05-22T08:07:52.096Z,5152
2017-05-22T08:08:53.465Z,5148
2017-05-22T08:09:54.868Z,5144
2017-05-22T08:10:56.219Z,5144
2017-05-22T08:11:57.668Z,5144
2017-05-22T08:12:59.037Z,5152
2017-05-22T08:14:00.415Z,5156
2017-05-22T08:15:01.779Z,5144
2017-05-22T08:16:03.145Z,5152
2017-05-22T08:17:04.560Z,5136
2017-05-22T08:18:05.885Z,5124
2017-05-22T08:19:07.258Z,5120
2017-05-22T08:20:08.630Z,5156
2017-05-22T08:21:10.005Z,5148
2017-05-22T08:22:11.376Z,5160
2017-05-22T08:23:12.749Z,5160
2017-05-22T08:24:14.120Z,5164
2017-05-22T08:25:15.499Z,5164
2017-05-22T08:26:16.862Z,5168
2017-05-22T08:27:18.240Z,5192
2017-05-22T08:28:19.609Z,5196
2017-05-22T08:29:20.994Z,5176
2017-05-22T08:30:22.389Z,5152
2017-05-22T08:31:23.753Z,5092
2017-05-22T08:32:25.121Z,5120
2017-05-22T08:33:26.496Z,5176
2017-05-22T08:34:27.870Z,5188
2017-05-22T08:35:29.256Z,5196
2017-05-22T08:36:30.623Z,5204
2017-05-22T08:37:31.985Z,5196
2017-05-22T08:38:33.354Z,5236
2017-05-22T08:39:34.733Z,5268
2017-05-22T08:40:36.830Z,5276
2017-05-22T08:41:38.237Z,5268
2017-05-22T08:42:39.603Z,5292
2017-05-22T08:43:40.989Z,5288
2017-05-22T08:44:42.359Z,5304
2017-05-22T08:45:43.741Z,5300
2017-05-22T08:46:45.104Z,5296
2017-05-22T08:47:46.492Z,5288
2017-05-22T08:48:47.864Z,5296
2017-05-22T08:49:49.232Z,5300
2017-05-22T08:50:50.594Z,5288
2017-05-22T08:51:51.969Z,5280
2017-05-22T08:52:53.335Z,5264
2017-05-22T08:53:54.713Z,5252
2017-05-22T08:54:56.081Z,5272
2017-05-22T08:55:57.461Z,5276
2017-05-22T08:56:58.830Z,5272
2017-05-22T08:58:00.199Z,5272
2017-05-22T08:59:01.566Z,5268
2017-05-22T09:00:03.010Z,5276
2017-05-22T09:01:04.379Z,5276
2017-05-22T09:02:05.749Z,5284
2017-05-22T09:03:07.118Z,5268
2017-05-22T09:04:08.494Z,5260
2017-05-22T09:05:09.861Z,5252
2017-05-22T09:06:11.327Z,5252
2017-05-22T09:07:12.738Z,5240
2017-05-22T09:08:14.107Z,5256
2017-05-22T09:09:15.484Z,5252
2017-05-22T09:10:16.859Z,5236
2017-05-22T09:11:18.222Z,5224
2017-05-22T09:12:19.601Z,5208
2017-05-22T09:13:20.974Z,5208
2017-05-22T09:14:22.361Z,5208
2017-05-22T09:15:23.740Z,5200
2017-05-22T09:16:25.634Z,5188
2017-05-22T09:17:27.002Z,5192
2017-05-22T09:18:28.382Z,5172
2017-05-22T09:19:29.769Z,5168
2017-05-22T09:20:31.139Z,5164
2017-05-22T09:21:32.514Z,5160
2017-05-22T09:22:33.878Z,5172
2017-05-22T09:23:35.291Z,5172
2017-05-22T09:24:36.623Z,5172
2017-05-22T09:25:37.995Z,5176
2017-05-22T09:26:39.369Z,5164
2017-05-22T09:27:40.736Z,5160
2017-05-22T09:28:42.105Z,5156
2017-05-22T09:29:43.478Z,5176
2017-05-22T09:30:44.847Z,5168
2017-05-22T09:31:46.227Z,5172
2017-05-22T09:32:47.627Z,5156
2017-05-22T09:33:48.994Z,5140
2017-05-22T09:34:50.358Z,5132
2017-05-22T09:35:51.731Z,5156
2017-05-22T09:36:53.099Z,5152
2017-05-22T09:37:54.479Z,5140
2017-05-22T09:38:55.844Z,5144
2017-05-22T09:39:57.219Z,5148
2017-05-22T09:40:58.582Z,5168
2017-05-22T09:41:59.961Z,5152
2017-05-22T09:43:01.331Z,5168
2017-05-22T09:44:02.702Z,5200
2017-05-22T09:45:04.069Z,5200
2017-05-22T09:46:05.479Z,5212
2017-05-22T09:47:06.855Z,5228
2017-05-22T09:48:08.223Z,5232
2017-05-22T09:49:09.590Z,5208
2017-05-22T09:50:10.961Z,5212
2017-05-22T09:51:12.334Z,5212
2017-05-22T09:52:13.713Z,5232
2017-05-22T09:53:15.091Z,5232
2017-05-22T09:54:16.502Z,5204
2017-05-22T09:55:17.874Z,5208
2017-05-22T09:56:19.250Z,5176
2017-05-22T09:57:20.622Z,5128
2017-05-22T09:58:22.005Z,5116
2017-05-22T09:59:23.374Z,5196
2017-05-22T10:00:24.748Z,5228
2017-05-22T10:01:26.130Z,5252
2017-05-22T10:02:27.511Z,5264
2017-05-22T10:03:28.872Z,5268
2017-05-22T10:04:30.242Z,5236
2017-05-22T10:05:31.610Z,5264
2017-05-22T10:06:32.976Z,5248
2017-05-22T10:07:34.350Z,5244
2017-05-22T10:08:35.723Z,5244
2017-05-22T10:09:37.091Z,5232
2017-05-22T10:10:38.461Z,5216
2017-05-22T10:11:39.838Z,5212
2017-05-22T10:12:41.209Z,5316
2017-05-22T10:13:42.584Z,5328
2017-05-22T10:14:43.956Z,5316
2017-05-22T10:15:45.332Z,5324
2017-05-22T10:16:46.708Z,5348
2017-05-22T10:17:48.099Z,5308
2017-05-22T10:18:49.463Z,5308
2017-05-22T10:19:51.350Z,5368
2017-05-22T10:20:52.727Z,5392
2017-05-22T10:21:54.097Z,5412
2017-05-22T10:22:55.475Z,5384
2017-05-22T10:23:56.852Z,5428
2017-05-22T10:24:58.219Z,5396
2017-05-22T10:25:59.594Z,5424
2017-05-22T10:27:00.968Z,5452
2017-05-22T10:28:02.334Z,5480
2017-05-22T10:29:03.746Z,5452
2017-05-22T10:30:05.115Z,5464
2017-05-22T10:31:06.483Z,5488
2017-05-22T10:32:07.857Z,5508
2017-05-22T10:33:09.231Z,5512
2017-05-22T10:34:10.607Z,5520
2017-05-22T10:35:11.977Z,5584
2017-05-22T10:36:13.484Z,5528
2017-05-22T10:37:14.869Z,5472
2017-05-22T10:38:16.241Z,5544
2017-05-22T10:39:17.644Z,5464
2017-05-22T10:40:19.074Z,5476
2017-05-22T10:41:20.441Z,5464
2017-05-22T10:42:21.816Z,5516
2017-05-22T10:43:23.189Z,5516
2017-05-22T10:44:24.568Z,5532
2017-05-22T10:45:25.938Z,5380
2017-05-22T10:46:27.333Z,5520
2017-05-22T10:47:28.711Z,5540
2017-05-22T10:48:30.084Z,5520
2017-05-22T10:49:31.503Z,5520
2017-05-22T10:50:32.817Z,5572
2017-05-22T10:51:34.211Z,5568
2017-05-22T10:52:35.588Z,5652
2017-05-22T10:53:36.952Z,5740
2017-05-22T10:54:38.319Z,5756
2017-05-22T10:55:39.703Z,5736
2017-05-22T10:56:41.086Z,5744
2017-05-22T10:57:42.461Z,4924
2017-05-22T10:58:43.832Z,5128
2017-05-22T10:59:45.254Z,5640
2017-05-22T11:00:46.622Z,5624
2017-05-22T11:01:47.993Z,5632
2017-05-22T11:02:49.368Z,5740
2017-05-22T11:03:50.739Z,5788
2017-05-22T11:04:52.124Z,5836
2017-05-22T11:05:53.500Z,5804
2017-05-22T11:06:54.875Z,5708
2017-05-22T11:07:56.278Z,5860
2017-05-22T11:08:57.657Z,5924
2017-05-22T11:09:59.030Z,5828
2017-05-22T11:11:00.443Z,5864
2017-05-22T11:12:01.810Z,6088
2017-05-22T11:13:03.180Z,6200
2017-05-22T11:14:04.577Z,4320
2017-05-22T11:15:05.952Z,4304
2017-05-22T11:16:07.343Z,5948
2017-05-22T11:17:08.742Z,5972
2017-05-22T11:18:10.111Z,6084
2017-05-22T11:19:11.490Z,6180
2017-05-22T11:20:12.866Z,6292
2017-05-22T11:21:14.235Z,6296
2017-05-22T11:22:15.603Z,6372
2017-05-22T11:23:16.982Z,6480
2017-05-22T11:24:18.420Z,6612
2017-05-22T11:25:19.800Z,6704
2017-05-22T11:26:21.181Z,7048
2017-05-22T11:27:22.558Z,7376
2017-05-22T11:28:23.931Z,7656
2017-05-22T11:29:25.314Z,7632
2017-05-22T11:30:26.685Z,7028
2017-05-22T11:31:28.070Z,6548
2017-05-22T11:32:29.445Z,5960
2017-05-22T11:33:30.823Z,6328
2017-05-22T11:34:32.206Z,5312
2017-05-22T11:35:33.573Z,5448
2017-05-22T11:36:34.949Z,6036
2017-05-22T11:37:36.336Z,6932
2017-05-22T11:38:37.707Z,7004
2017-05-22T11:39:39.077Z,6904
2017-05-22T11:40:40.458Z,6676
2017-05-22T11:41:41.851Z,6392
2017-05-22T11:42:43.229Z,6608
2017-05-22T11:43:44.607Z,7052
2017-05-22T11:44:45.978Z,7680
2017-05-22T11:45:47.345Z,7452
2017-05-22T11:46:48.729Z,7056
2017-05-22T11:47:50.099Z,7024
2017-05-22T11:48:51.482Z,7148
2017-05-22T11:49:52.856Z,7340
2017-05-22T11:50:54.226Z,7900
2017-05-22T11:51:55.598Z,8872
2017-05-22T11:52:56.977Z,9368
2017-05-22T11:53:58.362Z,8432
2017-05-22T11:54:59.735Z,7468
2017-05-22T11:56:01.142Z,7164
2017-05-22T11:57:02.511Z,7792
2017-05-22T11:58:03.885Z,6588
2017-05-22T11:59:05.253Z,6332
2017-05-22T12:00:06.624Z,6504
2017-05-22T12:01:07.996Z,6092
2017-05-22T12:02:09.380Z,6804
2017-05-22T12:03:10.767Z,6372
2017-05-22T12:04:12.142Z,7116
2017-05-22T12:05:13.522Z,6284
2017-05-22T12:06:14.897Z,7260
2017-05-22T12:07:16.272Z,7340
2017-05-22T12:08:17.734Z,6644
2017-05-22T12:09:19.102Z,7668
2017-05-22T12:10:20.479Z,7728
2017-05-22T12:11:21.856Z,7892
2017-05-22T12:12:23.316Z,8292
2017-05-22T12:13:24.693Z,8660
2017-05-22T12:14:26.064Z,9096
2017-05-22T12:15:27.437Z,9208
2017-05-22T12:16:28.814Z,10716
2017-05-22T12:17:30.190Z,10692
2017-05-22T12:18:31.562Z,10232
2017-05-22T12:19:32.941Z,9884
2017-05-22T12:20:34.317Z,9452
2017-05-22T12:21:35.711Z,8844
2017-05-22T12:22:37.121Z,8148
2017-05-22T12:23:38.497Z,6748
2017-05-22T12:24:39.880Z,6720
2017-05-22T12:25:41.259Z,7168
2017-05-22T12:26:42.625Z,6400
2017-05-22T12:27:44.510Z,6116
2017-05-22T12:28:45.899Z,5780
2017-05-22T12:29:47.278Z,5656
2017-05-22T12:30:48.663Z,5688
2017-05-22T12:31:50.048Z,6024
2017-05-22T12:32:51.423Z,6248
2017-05-22T12:33:52.816Z,7100
2017-05-22T12:34:54.214Z,6740
2017-05-22T12:35:55.620Z,6728
2017-05-22T12:36:56.989Z,6780
2017-05-22T12:37:58.379Z,7036
2017-05-22T12:38:59.747Z,7440
2017-05-22T12:40:01.122Z,7728
2017-05-22T12:41:02.488Z,7812
2017-05-22T12:42:03.871Z,8160
2017-05-22T12:43:05.242Z,7340
2017-05-22T12:44:06.617Z,7428
2017-05-22T12:45:08.537Z,7272
2017-05-22T12:46:09.927Z,7220
2017-05-22T12:47:11.330Z,8468
2017-05-22T12:48:12.724Z,8448
2017-05-22T12:49:14.153Z,8288
2017-05-22T12:50:15.526Z,8260
2017-05-22T12:51:16.896Z,8200
2017-05-22T12:52:18.277Z,8120
2017-05-22T12:53:19.719Z,7988
2017-05-22T12:54:21.094Z,7916
2017-05-22T12:55:22.460Z,5972
2017-05-22T12:56:23.834Z,5196
2017-05-22T12:57:25.202Z,5320
2017-05-22T12:58:26.579Z,8140
2017-05-22T12:59:28.029Z,9044
2017-05-22T13:00:29.409Z,9012
2017-05-22T13:01:30.966Z,9096
2017-05-22T13:02:32.333Z,9104
2017-05-22T13:03:33.732Z,9212
2017-05-22T13:04:35.104Z,9236
2017-05-22T13:05:36.478Z,9284
2017-05-22T13:06:37.854Z,9316
2017-05-22T13:07:39.253Z,9356
2017-05-22T13:08:40.627Z,9040
2017-05-22T13:09:42.001Z,8816
2017-05-22T13:10:43.371Z,8896
2017-05-22T13:11:44.746Z,8888
2017-05-22T13:12:46.128Z,8592
2017-05-22T13:13:47.495Z,9240
2017-05-22T13:14:48.872Z,8608
2017-05-22T13:15:50.273Z,8884
2017-05-22T13:16:51.655Z,9032
2017-05-22T13:17:53.031Z,9184
2017-05-22T13:18:54.402Z,9184
2017-05-22T13:19:55.781Z,9056
2017-05-22T13:20:57.162Z,8796
2017-05-22T13:21:58.539Z,9716
2017-05-22T13:22:59.941Z,10004
2017-05-22T13:24:01.313Z,10636
2017-05-22T13:25:02.692Z,10892
2017-05-22T13:26:04.058Z,11196
2017-05-22T13:27:06.218Z,11060
2017-05-22T13:28:07.659Z,10964
2017-05-22T13:29:09.038Z,10496
2017-05-22T13:30:10.415Z,10540
2017-05-22T13:31:11.783Z,10432
2017-05-22T13:32:13.168Z,10832
2017-05-22T13:33:14.545Z,11152
2017-05-22T13:34:15.924Z,10904
2017-05-22T13:35:17.314Z,11276
2017-05-22T13:36:18.696Z,11616
2017-05-22T13:37:20.069Z,11656
2017-05-22T13:38:21.447Z,11676
2017-05-22T13:39:22.831Z,11696
2017-05-22T13:40:24.206Z,11640
2017-05-22T13:41:25.581Z,10752
2017-05-22T13:42:26.984Z,11700
2017-05-22T13:43:28.371Z,11824
2017-05-22T13:44:29.767Z,11792
2017-05-22T13:45:31.164Z,12012
2017-05-22T13:46:32.647Z,12068
2017-05-22T13:47:34.029Z,12040
2017-05-22T13:48:35.422Z,12028
2017-05-22T13:49:36.808Z,12028
2017-05-22T13:50:38.189Z,12188
2017-05-22T13:51:39.566Z,12348
2017-05-22T13:52:40.958Z,12484
2017-05-22T13:53:42.322Z,12428
2017-05-22T13:54:43.689Z,12604